• Join FlightAware (Why Join?)
  • Login
  • US Flag 
01:06PM EDT


 

Airport Tracker/Info


-or-


 

Live Flight TrackerFlight Track Log ✈ FLG3740 ✈ 25-Apr-2013 ✈ KCVG - KGRR

Flight Track Log - Related Links

Times and Time Zones

All times are in EDT time to prevent confusion due to time zone crossing. See the FLG3740 flight status page for this flight to view local times or setup timezone preferences in your user account.

Time Position Orientation Groundspeed Altitude Reporting Facility
EDT Latitude Longitude Course Direction KTS MPH feet Rate Location/Type
04:24PM 39.0500 -84.6833 351° North 138 159 1,500  Level Cincinnati TRACON
04:25PM 39.0667 -84.7333 293° West 186 214 3,500 2,400 Climbing Cincinnati TRACON
04:26PM 39.1167 -84.7667 333° Northwest 234 269 6,100 2,460 Climbing Cincinnati TRACON
04:27PM 38.9291 -84.8140 313° West  Level FlightAware Approximate
04:28PM 39.0105 -84.8813 345° North  Level FlightAware Approximate
04:28PM 39.2361 -84.8394 335° Northwest 267 307 11,000  Level Indianapolis Center
04:29PM 39.1101 -84.9020 351° North  Level FlightAware Approximate
04:29PM 39.3219 -84.8608 349° North 327 376 12,800  Level Indianapolis Center
04:30PM 39.4308 -84.8803 352° North 334 384 15,300 2,280 Climbing Indianapolis Center
04:31PM 39.5219 -84.8956 353° North 341 392 17,600 1,800 Climbing Indianapolis Center
04:32PM 39.6181 -84.9133 352° North 346 398 19,100 1,380 Climbing Indianapolis Center
04:33PM 39.7167 -84.9308 352° North 355 409 20,500 1,380 Climbing Indianapolis Center
04:34PM 39.8339 -84.9517 352° North 361 415 22,000 720 Climbing Indianapolis Center
04:35PM 39.9378 -84.9700 352° North 372 428 22,000  Level Indianapolis Center
04:36PM 40.0431 -84.9908 351° North 379 436 22,000  Level Indianapolis Center
04:37PM 40.1517 -85.0092 353° North 388 447 22,000  Level Indianapolis Center
04:38PM 40.2583 -85.0281 352° North 387 445 22,000  Level Indianapolis Center
04:39PM 40.3647 -85.0481 352° North 385 443 22,000  Level Indianapolis Center
04:40PM 40.4900 -85.0711 352° North 387 445 22,000  Level Indianapolis Center
04:41PM 40.5944 -85.0889 353° North 379 436 22,000  Level Indianapolis Center
04:42PM 40.6981 -85.1086 352° North 375 432 22,000  Level Indianapolis Center
04:43PM 40.8008 -85.1264 353° North 372 428 22,000  Level Indianapolis Center
04:44PM 40.9050 -85.1450 352° North 375 432 22,000  Level Indianapolis Center
04:45PM 41.0072 -85.1642 352° North 370 426 22,000  Level Indianapolis Center
04:46PM 41.1275 -85.1867 352° North 373 429 22,000  Level Indianapolis Center
04:47PM 41.2400 -85.2078 352° North 375 432 22,000  Level Chicago Center
04:49PM 41.3422 -85.2261 352° North 373 429 22,000  Level Chicago Center
04:50PM 41.4439 -85.2450 352° North 371 427 22,000  Level Chicago Center
04:51PM 41.5450 -85.2636 352° North 371 427 22,000 -540 Level Chicago Center
04:52PM 41.6656 -85.2869 352° North 374 430 20,900 -1,260 Descending Chicago Center
04:53PM 41.7656 -85.3069 352° North 372 428 19,400 -1,440 Descending Chicago Center
04:54PM 41.8658 -85.3253 352° North 368 423 18,000 -1,260 Descending Chicago Center
04:55PM 41.9653 -85.3450 352° North 363 418 16,800 -1,380 Descending Chicago Center
04:56PM 42.0703 -85.3647 352° North 355 409 15,200 -1,020 Descending Chicago Center
04:57PM 42.1631 -85.3819 352° North 339 390 14,700 -1,020 Descending Chicago Center
04:58PM 42.2467 -85.4083 347° North 312 359 13,200 -1,620 Descending Chicago Center
04:59PM 42.3442 -85.4586 339° North 311 358 11,400 -720 Descending Chicago Center
05:01PM 42.4885 -85.4352 North  Level FlightAware Approximate
05:01PM 42.5286 -85.4794 North 337 388 11,000  Level Chicago Center
05:02PM 42.6153 -85.4842 358° North 319 367 10,800 -1,020 Descending Chicago Center
05:03PM 42.6872 -85.4478 20° North 280 322 9,000 -2,460 Descending Chicago Center
05:04PM 42.7667 -85.4081 20° North 260 299 5,800 -3,000 Descending Chicago Center
05:05PM 42.8303 -85.3783 19° North 248 285 2,800 -2,940 Descending Chicago Center